Time;durP1;ratioP1;P1;durP2;ratioP2;P2;SDS_P1;SDS_P2;PMS_P1;PMS_P2;Temp;Humidity;BMP_temperature;BMP_pressure;BME280_temperature;BME280_humidity;BME280_pressure;Samples;Min_cycle;Max_cycle;Signal;HPM_P1;HPM_P2
2023/01/19 00:00:11;;;;;;;26.10;15.13;;;;;;;1.35;80.89;99786.94;5114731;28;20184;-69
2023/01/19 00:02:38;;;;;;;23.50;16.17;;;;;;;1.31;81.77;99781.88;5114377;28;20185;-69
2023/01/19 00:05:05;;;;;;;23.07;15.33;;;;;;;1.33;81.57;99778.25;5114900;28;20216;-69
2023/01/19 00:07:31;;;;;;;20.77;14.97;;;;;;;1.34;81.32;99774.69;5114459;28;20197;-69
2023/01/19 00:09:58;;;;;;;23.07;15.20;;;;;;;1.34;81.77;99774.69;5114815;28;20195;-69
2023/01/19 00:12:25;;;;;;;21.03;14.77;;;;;;;1.34;81.60;99784.38;5114785;28;20185;-69
2023/01/19 00:14:51;;;;;;;19.37;15.47;;;;;;;1.31;81.39;99779.25;5114135;28;20678;-69
2023/01/19 00:17:18;;;;;;;18.70;15.70;;;;;;;1.29;81.78;99787.22;5114084;28;20211;-69
2023/01/19 00:19:44;;;;;;;20.67;15.80;;;;;;;1.27;81.39;99775.94;5114693;28;20188;-69
2023/01/19 00:22:10;;;;;;;24.10;16.67;;;;;;;1.22;81.50;99775.25;5114167;28;20198;-71
2023/01/19 00:24:37;;;;;;;19.30;16.17;;;;;;;1.23;81.95;99774.34;5114183;28;20655;-68
2023/01/19 00:27:03;;;;;;;20.47;14.93;;;;;;;1.28;81.60;99786.38;5113944;28;20183;-67
2023/01/19 00:29:32;;;;;;;21.37;16.27;;;;;;;1.37;81.84;99789.50;5095889;28;20681;-67
2023/01/19 00:32:03;;;;;;;29.60;16.20;;;;;;;1.33;82.09;99791.44;5095617;28;20193;-67
2023/01/19 00:34:38;;;;;;;19.80;15.10;;;;;;;1.41;81.79;99799.84;5114085;28;20197;-67
2023/01/19 00:37:06;;;;;;;21.33;15.53;;;;;;;1.41;81.68;99798.97;5114064;28;20195;-67
2023/01/19 00:39:32;;;;;;;23.10;16.00;;;;;;;1.39;82.03;99792.91;5114024;28;20191;-67
2023/01/19 00:44:43;;;;;;;18.57;16.40;;;;;;;1.38;81.62;99786.78;5114071;28;20169;-67
2023/01/19 00:47:10;;;;;;;18.47;15.60;;;;;;;1.42;80.95;99795.41;5113565;28;20189;-67
2023/01/19 00:49:36;;;;;;;29.87;16.00;;;;;;;1.37;81.77;99787.72;5113648;28;20187;-67
2023/01/19 00:52:03;;;;;;;30.00;16.07;;;;;;;1.42;82.09;99798.91;5113898;28;20181;-67
2023/01/19 00:54:29;;;;;;;23.77;16.10;;;;;;;1.37;81.91;99787.72;5113824;28;20250;-67
2023/01/19 00:56:55;;;;;;;20.13;15.70;;;;;;;1.34;82.16;99781.72;5113636;28;20652;-67
2023/01/19 00:59:22;;;;;;;21.47;15.43;;;;;;;1.40;81.38;99798.13;5114229;28;20624;-67
2023/01/19 01:01:48;;;;;;;25.07;16.43;;;;;;;1.39;81.40;99792.91;5117421;28;20181;-67
2023/01/19 01:04:15;;;;;;;21.23;15.53;;;;;;;1.43;81.55;99795.31;5121612;28;20193;-68
2023/01/19 01:06:41;;;;;;;24.17;15.93;;;;;;;1.37;81.93;99787.72;5121231;28;20197;-68
2023/01/19 01:09:10;;;;;;;23.67;16.67;;;;;;;1.40;81.27;99798.13;5119681;28;20212;-67
2023/01/19 01:11:41;;;;;;;27.70;16.17;;;;;;;1.47;82.15;99798.66;5118328;28;20287;-67
2023/01/19 01:14:10;;;;;;;21.03;16.50;;;;;;;1.43;81.75;99795.31;5117934;28;20647;-68
2023/01/19 01:16:36;;;;;;;22.07;16.37;;;;;;;1.45;81.71;99797.88;5117832;28;20195;-68
2023/01/19 01:19:02;;;;;;;22.97;16.47;;;;;;;1.48;81.77;99792.44;5118046;28;20260;-67
2023/01/19 01:21:29;;;;;;;22.03;15.67;;;;;;;1.55;82.29;99790.38;5117538;28;20663;-67
2023/01/19 01:23:55;;;;;;;28.63;16.17;;;;;;;1.50;82.02;99795.88;5117374;28;20197;-68
2023/01/19 01:26:22;;;;;;;18.27;15.03;;;;;;;1.43;81.85;99799.75;5117481;28;20189;-67
2023/01/19 01:28:49;;;;;;;20.13;15.03;;;;;;;1.48;81.87;99803.88;5117600;28;20205;-67
2023/01/19 01:31:15;;;;;;;20.13;16.07;;;;;;;1.52;82.29;99796.66;5117891;28;20189;-67
2023/01/19 01:33:42;;;;;;;21.33;15.37;;;;;;;1.55;81.92;99800.94;5117284;28;20730;-67
2023/01/19 01:36:10;;;;;;;26.00;16.60;;;;;;;1.60;81.80;99799.75;5117427;28;20216;-68
2023/01/19 01:38:38;;;;;;;25.63;16.67;;;;;;;1.56;82.16;99787.66;5098877;28;20212;-68
2023/01/19 01:41:05;;;;;;;22.53;15.27;;;;;;;1.61;82.04;99784.81;5117136;28;20189;-68
2023/01/19 01:43:43;;;;;;;22.43;16.30;;;;;;;1.57;81.82;99785.88;5117107;28;20193;-68
2023/01/19 01:46:10;;;;;;;23.00;16.27;;;;;;;1.51;82.24;99781.78;5117053;28;20170;-68
2023/01/19 01:48:38;;;;;;;28.57;17.57;;;;;;;1.46;82.24;99789.03;5116911;28;20627;-67
2023/01/19 01:51:24;;;;;;;20.60;17.00;;;;;;;1.50;81.85;99790.59;5117237;28;20198;-68
2023/01/19 01:54:18;;;;;;;23.63;16.87;;;;;;;1.59;81.79;99794.56;5117521;28;20183;-68
2023/01/19 01:56:51;;;;;;;18.80;15.53;;;;;;;1.59;81.36;99795.41;5117134;28;20257;-68
2023/01/19 01:59:28;;;;;;;20.93;16.57;;;;;;;1.59;81.69;99791.94;5117141;28;20181;-68
2023/01/19 02:04:52;;;;;;;24.50;15.40;;;;;;;1.70;81.57;99792.25;5116743;28;20170;-68
2023/01/19 02:15:44;;;;;;;21.30;15.70;;;;;;;1.51;81.43;99791.44;5116439;28;20235;-68
2023/01/19 02:18:11;;;;;;;21.43;15.87;;;;;;;1.54;82.01;99786.88;5116689;28;20203;-68
2023/01/19 02:20:41;;;;;;;23.07;15.50;;;;;;;1.55;81.79;99793.00;5116394;28;20242;-68
2023/01/19 02:23:15;;;;;;;22.83;15.77;;;;;;;1.60;81.81;99785.72;5116598;28;20189;-68
2023/01/19 02:25:42;;;;;;;22.87;15.37;;;;;;;1.66;81.52;99793.34;5116561;28;20611;-68
2023/01/19 02:28:08;;;;;;;18.60;14.93;;;;;;;1.65;81.55;99788.97;5116189;28;20205;-68
2023/01/19 02:30:38;;;;;;;24.40;15.73;;;;;;;1.66;81.63;99783.63;5116232;28;20185;-68
2023/01/19 02:33:06;;;;;;;17.23;13.80;;;;;;;1.62;81.17;99779.44;5116171;28;20186;-68
2023/01/19 02:35:34;;;;;;;22.17;15.90;;;;;;;1.53;81.63;99779.88;5116310;28;20722;-68
2023/01/19 02:38:02;;;;;;;20.70;15.43;;;;;;;1.53;81.41;99781.69;5115967;28;20307;-68
2023/01/19 02:40:29;;;;;;;21.13;16.00;;;;;;;1.54;81.47;99778.13;5116007;28;20206;-68
2023/01/19 02:42:59;;;;;;;21.43;15.67;;;;;;;1.55;80.98;99780.66;5116464;28;20539;-68
2023/01/19 02:45:26;;;;;;;18.17;16.17;;;;;;;1.53;81.64;99774.59;5116197;28;20173;-68
2023/01/19 02:47:53;;;;;;;28.13;15.63;;;;;;;1.51;81.38;99794.09;5116051;28;20578;-67
2023/01/19 02:50:37;;;;;;;18.67;15.80;;;;;;;1.51;81.03;99775.63;5115822;28;20181;-68
2023/01/19 02:53:41;;;;;;;18.50;14.80;;;;;;;1.44;81.24;99785.63;5116100;28;20260;-68
2023/01/19 02:56:18;;;;;;;26.63;14.57;;;;;;;1.41;81.80;99785.78;5113607;28;20237;-68
2023/01/19 02:59:18;;;;;;;21.53;14.63;;;;;;;1.46;81.67;99778.47;5115933;28;20566;-68
2023/01/19 03:02:03;;;;;;;21.83;13.80;;;;;;;1.45;81.25;99767.09;5116172;28;20178;-68
2023/01/19 03:04:55;;;;;;;21.27;15.27;;;;;;;1.46;81.41;99762.66;5115573;28;20181;-68
2023/01/19 03:07:39;;;;;;;18.07;13.10;;;;;;;1.54;80.99;99772.84;5115462;28;20240;-68
2023/01/19 03:10:11;;;;;;;18.37;14.70;;;;;;;1.50;81.85;99774.78;5115769;28;20174;-68
2023/01/19 03:12:51;;;;;;;19.53;15.33;;;;;;;1.49;81.41;99767.78;5115390;28;20181;-68
2023/01/19 03:15:22;;;;;;;22.97;14.40;;;;;;;1.48;81.68;99777.50;5115578;28;20189;-68
2023/01/19 03:17:50;;;;;;;15.53;13.93;;;;;;;1.53;81.97;99766.69;5115845;28;20215;-69
2023/01/19 03:20:23;;;;;;;21.50;15.87;;;;;;;1.51;81.61;99765.94;5115504;28;20192;-69
2023/01/19 03:22:59;;;;;;;19.27;14.73;;;;;;;1.49;81.62;99768.66;5114808;28;20203;-69
2023/01/19 03:25:30;;;;;;;32.30;14.60;;;;;;;1.52;80.99;99769.44;5115591;28;20269;-69
2023/01/19 03:27:56;;;;;;;21.10;14.30;;;;;;;1.46;81.54;99768.81;5115574;28;20219;-68
2023/01/19 03:30:27;;;;;;;16.40;13.50;;;;;;;1.42;81.73;99767.25;5115029;28;20555;-68
2023/01/19 03:32:59;;;;;;;20.90;15.03;;;;;;;1.44;81.85;99767.19;5114973;28;20187;-68
2023/01/19 03:35:31;;;;;;;16.53;14.07;;;;;;;1.45;82.00;99756.53;5115092;28;20655;-68
2023/01/19 03:38:02;;;;;;;17.67;14.43;;;;;;;1.44;81.33;99760.09;5115115;28;20590;-68
2023/01/19 03:40:32;;;;;;;20.83;15.53;;;;;;;1.45;81.19;99759.16;5114774;28;20184;-68
2023/01/19 03:43:01;;;;;;;17.20;15.30;;;;;;;1.51;81.37;99765.94;5115006;28;20185;-68
2023/01/19 03:45:31;;;;;;;17.03;14.63;;;;;;;1.56;80.97;99761.28;5114946;28;20181;-69
2023/01/19 03:47:58;;;;;;;15.20;13.23;;;;;;;1.50;81.59;99761.56;5114841;28;20291;-68
2023/01/19 03:50:28;;;;;;;17.43;14.00;;;;;;;1.59;81.34;99760.28;5114608;28;20174;-68
2023/01/19 03:53:04;;;;;;;21.27;14.73;;;;;;;1.62;81.74;99768.03;5114820;28;20253;-68
2023/01/19 03:55:30;;;;;;;18.83;14.47;;;;;;;1.60;81.53;99773.38;5114699;28;20564;-68
2023/01/19 03:57:57;;;;;;;18.50;13.27;;;;;;;1.56;81.18;99769.19;5114611;28;20208;-68
2023/01/19 04:00:24;;;;;;;17.37;13.63;;;;;;;1.63;81.48;99762.69;5114971;28;20177;-68
2023/01/19 04:02:50;;;;;;;17.97;13.87;;;;;;;1.63;81.21;99770.59;5114694;28;20182;-68
2023/01/19 04:05:18;;;;;;;18.37;14.63;;;;;;;1.74;81.42;99764.75;5115487;28;20493;-69
2023/01/19 04:07:47;;;;;;;15.57;13.37;;;;;;;1.67;81.13;99756.28;5114668;28;20197;-69
2023/01/19 04:10:15;;;;;;;20.50;13.63;;;;;;;1.59;81.90;99769.03;5114289;28;20189;-69
2023/01/19 04:12:42;;;;;;;17.97;14.37;;;;;;;1.50;82.89;99769.50;5096217;28;20196;-69
2023/01/19 04:15:08;;;;;;;18.13;14.47;;;;;;;1.54;83.44;99767.56;5114308;28;20216;-69
2023/01/19 04:17:34;;;;;;;19.83;13.90;;;;;;;1.47;83.88;99774.94;5114096;28;20212;-68
2023/01/19 04:20:01;;;;;;;23.47;13.37;;;;;;;1.39;84.36;99772.69;5114673;28;20180;-68
2023/01/19 04:22:28;;;;;;;19.17;12.83;;;;;;;1.33;84.76;99772.97;5114034;28;20209;-68
2023/01/19 04:24:54;;;;;;;19.77;14.20;;;;;;;1.23;85.12;99777.84;5114431;28;20612;-68
2023/01/19 04:27:21;;;;;;;19.60;13.83;;;;;;;1.08;85.45;99772.44;5114011;28;20302;-68
2023/01/19 04:29:47;;;;;;;20.70;14.33;;;;;;;0.96;86.64;99777.41;5114329;28;20287;-69
2023/01/19 04:32:14;;;;;;;21.50;14.10;;;;;;;0.76;86.45;99772.19;5114261;28;20176;-69
2023/01/19 04:34:40;;;;;;;17.70;13.90;;;;;;;0.62;86.68;99767.56;5113219;28;20196;-70
2023/01/19 04:37:07;;;;;;;15.73;13.63;;;;;;;0.52;88.31;99767.16;5114055;28;20205;-69
2023/01/19 04:39:34;;;;;;;18.57;14.23;;;;;;;0.44;87.56;99766.66;5114180;28;20186;-70
2023/01/19 04:42:00;;;;;;;16.20;13.47;;;;;;;0.45;89.16;99759.59;5114103;28;20193;-70
2023/01/19 04:44:27;;;;;;;16.07;13.10;;;;;;;0.45;89.47;99767.50;5113777;28;20191;-70
2023/01/19 04:46:54;;;;;;;21.37;13.97;;;;;;;0.49;89.10;99769.06;5113697;28;20192;-69
2023/01/19 04:49:20;;;;;;;14.83;13.27;;;;;;;0.52;89.43;99769.78;5114044;28;20659;-69
2023/01/19 04:51:46;;;;;;;24.17;13.73;;;;;;;0.50;89.63;99771.63;5113699;28;20220;-69
2023/01/19 04:54:13;;;;;;;20.93;13.40;;;;;;;0.57;89.28;99772.19;5113951;28;20191;-71
2023/01/19 04:56:42;;;;;;;18.70;13.37;;;;;;;0.56;90.46;99774.00;5113637;28;20201;-72
2023/01/19 04:59:08;;;;;;;19.00;13.77;;;;;;;0.53;90.37;99771.50;5113609;28;20204;-72
2023/01/19 05:01:35;;;;;;;16.53;13.87;;;;;;;0.50;90.18;99771.63;5113683;28;20193;-72
2023/01/19 05:04:05;;;;;;;23.30;14.90;;;;;;;0.40;90.17;99781.72;5113746;28;20199;-72
2023/01/19 05:06:32;;;;;;;22.93;14.67;;;;;;;0.45;91.11;99776.25;5113670;28;20266;-72
2023/01/19 05:08:58;;;;;;;24.30;15.07;;;;;;;0.40;90.12;99773.81;5113595;28;20214;-72
2023/01/19 05:11:25;;;;;;;24.60;15.10;;;;;;;0.52;90.74;99780.31;5114056;28;20561;-72
2023/01/19 05:13:51;;;;;;;22.90;15.77;;;;;;;0.59;90.41;99794.06;5113511;28;20271;-72
2023/01/19 05:16:18;;;;;;;23.73;16.23;;;;;;;0.49;90.68;99796.25;5113738;28;20200;-72
2023/01/19 05:18:44;;;;;;;24.33;17.40;;;;;;;0.42;90.07;99786.94;5095395;28;20754;-72
2023/01/19 05:21:10;;;;;;;32.90;17.23;;;;;;;0.40;90.18;99783.50;5113418;28;20554;-72
2023/01/19 05:23:37;;;;;;;26.60;17.43;;;;;;;0.42;90.66;99785.16;5113583;28;20182;-73
2023/01/19 05:26:04;;;;;;;27.70;17.73;;;;;;;0.48;90.71;99781.41;5113445;28;20174;-73
2023/01/19 05:28:32;;;;;;;25.30;18.03;;;;;;;0.44;91.25;99792.16;5113583;28;20648;-73
2023/01/19 05:30:58;;;;;;;26.57;17.73;;;;;;;0.40;90.33;99792.25;5113532;28;20181;-73
2023/01/19 05:33:25;;;;;;;25.57;18.00;;;;;;;0.36;91.07;99792.47;5113242;28;20562;-70
2023/01/19 05:35:52;;;;;;;22.67;17.10;;;;;;;0.32;91.42;99798.81;5113182;28;20205;-72
2023/01/19 05:38:19;;;;;;;33.23;17.53;;;;;;;0.27;91.06;99792.91;5113125;28;20235;-72
2023/01/19 05:41:00;;;;;;;32.03;18.30;;;;;;;0.28;91.22;99794.59;5113511;28;20188;-73
2023/01/19 05:43:26;;;;;;;25.27;17.90;;;;;;;0.30;91.12;99792.75;5113728;28;20196;-73
2023/01/19 05:45:52;;;;;;;38.80;17.90;;;;;;;0.33;90.83;99795.25;5113738;28;20186;-73
2023/01/19 05:48:19;;;;;;;25.20;16.83;;;;;;;0.33;91.74;99798.72;5116973;28;20209;-72
2023/01/19 05:50:48;;;;;;;26.80;15.97;;;;;;;0.35;90.59;99796.03;5117483;28;20207;-71
2023/01/19 05:53:15;;;;;;;27.63;16.77;;;;;;;0.35;90.99;99801.31;5117322;28;20185;-70
2023/01/19 05:55:42;;;;;;;16.87;13.43;;;;;;;0.32;91.68;99799.66;5117297;28;20574;-73
2023/01/19 05:58:08;;;;;;;24.73;17.20;;;;;;;0.31;91.76;99804.97;5117109;28;20208;-72
2023/01/19 06:00:34;;;;;;;28.53;17.00;;;;;;;0.25;91.15;99810.53;5116772;28;20240;-72
2023/01/19 06:03:01;;;;;;;18.67;13.93;;;;;;;0.25;92.04;99807.91;5098953;28;20195;-72
2023/01/19 06:05:28;;;;;;;26.00;17.13;;;;;;;0.23;91.92;99810.59;5116968;28;20238;-72
2023/01/19 06:07:55;;;;;;;22.57;16.27;;;;;;;0.15;92.19;99815.34;5116802;28;20237;-74
2023/01/19 06:10:22;;;;;;;24.83;16.27;;;;;;;0.18;92.03;99809.94;5117509;28;20268;-73
2023/01/19 06:12:50;;;;;;;31.47;17.63;;;;;;;0.20;92.39;99813.38;5116806;28;20191;-73
2023/01/19 06:15:17;;;;;;;29.30;17.87;;;;;;;0.20;92.33;99814.22;5116474;28;20188;-73
2023/01/19 06:17:43;;;;;;;23.43;16.93;;;;;;;0.25;91.98;99813.19;5116450;28;20291;-72
2023/01/19 06:20:12;;;;;;;22.93;16.63;;;;;;;0.21;91.22;99809.81;5116404;28;20219;-72
2023/01/19 06:22:39;;;;;;;25.73;16.33;;;;;;;0.24;91.65;99824.59;5116575;28;20303;-72
2023/01/19 06:25:05;;;;;;;21.20;16.37;;;;;;;0.13;91.21;99833.84;5116635;28;20612;-72
2023/01/19 06:27:32;;;;;;;21.93;15.90;;;;;;;0.11;91.91;99837.47;5116181;28;20286;-72
2023/01/19 06:29:58;;;;;;;20.17;15.53;;;;;;;0.08;91.81;99832.34;5116769;28;20196;-72
2023/01/19 06:32:24;;;;;;;23.77;15.50;;;;;;;0.11;92.24;99830.41;5116455;28;20280;-72
2023/01/19 06:34:51;;;;;;;28.87;16.90;;;;;;;0.06;91.87;99842.06;5116097;28;20196;-71
2023/01/19 06:37:19;;;;;;;20.93;16.07;;;;;;;0.07;91.56;99849.03;5115953;28;20223;-72
2023/01/19 06:39:45;;;;;;;26.63;16.60;;;;;;;0.09;92.48;99847.19;5116009;28;20711;-72
2023/01/19 06:42:12;;;;;;;20.37;15.87;;;;;;;0.08;92.14;99856.03;5116245;28;20180;-72
2023/01/19 06:44:46;;;;;;;22.83;14.77;;;;;;;0.10;93.04;99860.31;5115975;28;20190;-73
2023/01/19 06:47:13;;;;;;;17.13;13.60;;;;;;;0.10;92.01;99867.34;5116466;28;20839;-73
2023/01/19 06:49:41;;;;;;;20.20;13.77;;;;;;;0.06;92.63;99863.97;5115810;28;20588;-73
2023/01/19 06:52:10;;;;;;;18.77;14.93;;;;;;;0.10;92.51;99870.84;5116378;28;20257;-73
2023/01/19 06:54:37;;;;;;;14.30;12.83;;;;;;;0.14;92.65;99879.44;5115984;28;20594;-73
2023/01/19 06:57:03;;;;;;;21.03;16.00;;;;;;;0.13;92.88;99888.28;5115540;28;20203;-74
2023/01/19 06:59:30;;;;;;;25.90;13.90;;;;;;;0.08;91.61;99875.31;5114809;28;20181;-74
2023/01/19 07:01:57;;;;;;;18.23;14.83;;;;;;;0.11;93.02;99890.13;5116124;28;20181;-73
2023/01/19 07:04:25;;;;;;;21.67;14.27;;;;;;;0.18;92.17;99902.09;5115574;28;20617;-73
2023/01/19 07:06:51;;;;;;;25.80;14.40;;;;;;;0.17;91.89;99892.50;5098021;28;20267;-73
2023/01/19 07:09:19;;;;;;;20.27;15.40;;;;;;;0.17;91.75;99898.59;5116024;28;20279;-73
2023/01/19 07:11:47;;;;;;;23.40;16.17;;;;;;;0.21;92.24;99901.94;5116070;28;20169;-73
2023/01/19 07:14:13;;;;;;;24.30;17.37;;;;;;;0.23;92.62;99891.38;5115321;28;20656;-73
2023/01/19 07:16:40;;;;;;;24.67;17.07;;;;;;;0.28;91.82;99890.25;5115857;28;20599;-72
2023/01/19 07:19:09;;;;;;;26.33;17.87;;;;;;;0.31;91.80;99897.16;5115227;28;20241;-73
2023/01/19 07:21:36;;;;;;;25.97;19.07;;;;;;;0.29;92.41;99896.34;5115398;28;20273;-73
2023/01/19 07:24:02;;;;;;;29.03;17.60;;;;;;;0.32;91.99;99901.50;5115167;28;20192;-73
2023/01/19 07:26:29;;;;;;;24.77;16.37;;;;;;;0.37;91.71;99902.16;5115635;28;20701;-73
2023/01/19 07:28:56;;;;;;;30.83;18.50;;;;;;;0.40;91.85;99909.91;5115059;28;20646;-72
2023/01/19 07:31:22;;;;;;;28.67;17.70;;;;;;;0.43;91.31;99925.59;5115007;28;20241;-72
2023/01/19 07:33:49;;;;;;;23.90;17.53;;;;;;;0.42;92.30;99930.00;5115265;28;20185;-72
2023/01/19 07:36:15;;;;;;;25.33;19.23;;;;;;;0.42;91.76;99926.50;5115227;28;20236;-72
2023/01/19 07:38:42;;;;;;;23.30;17.17;;;;;;;0.48;92.21;99930.66;5115101;28;20250;-72
2023/01/19 07:41:09;;;;;;;30.80;17.77;;;;;;;0.50;91.29;99932.28;5114875;28;20216;-72
2023/01/19 07:43:35;;;;;;;27.87;17.97;;;;;;;0.56;91.50;99932.03;5096656;28;20187;-72
2023/01/19 07:46:04;;;;;;;29.83;18.67;;;;;;;0.61;90.95;99942.38;5114832;28;20715;-72
2023/01/19 07:48:30;;;;;;;21.50;16.67;;;;;;;0.56;90.84;99942.59;5114670;28;20295;-73
2023/01/19 07:51:04;;;;;;;27.57;18.30;;;;;;;0.60;91.06;99951.22;5114718;28;20183;-71
2023/01/19 07:53:31;;;;;;;25.23;17.47;;;;;;;0.64;91.80;99960.69;5115008;28;20201;-71
2023/01/19 07:55:57;;;;;;;27.17;17.83;;;;;;;0.69;90.98;99963.13;5114478;28;20274;-72
2023/01/19 07:58:25;;;;;;;26.93;17.40;;;;;;;0.66;91.49;99961.47;5114492;28;20298;-71
2023/01/19 08:00:51;;;;;;;26.23;18.07;;;;;;;0.68;91.55;99972.81;5114714;28;20607;-71
2023/01/19 08:03:18;;;;;;;25.67;17.63;;;;;;;0.64;90.74;99973.84;5114990;28;20270;-71
2023/01/19 08:05:50;;;;;;;31.87;18.40;;;;;;;0.67;91.34;99979.03;5114855;28;20173;-71
2023/01/19 08:08:17;;;;;;;32.60;18.33;;;;;;;0.67;91.19;99978.13;5114610;28;20208;-71
2023/01/19 08:10:44;;;;;;;31.80;19.83;;;;;;;0.74;91.07;99987.50;5114562;28;20599;-71
2023/01/19 08:13:10;;;;;;;24.60;18.53;;;;;;;0.76;90.68;99993.56;5114287;28;20271;-71
2023/01/19 08:15:36;;;;;;;29.67;19.13;;;;;;;0.77;91.23;100000.56;5114508;28;20184;-71
2023/01/19 08:18:04;;;;;;;26.97;18.60;;;;;;;0.73;90.64;99999.81;5114159;28;20229;-71
2023/01/19 08:20:31;;;;;;;33.30;18.40;;;;;;;0.73;90.54;100010.34;5114403;28;20184;-71
2023/01/19 08:23:01;;;;;;;29.30;18.47;;;;;;;0.81;91.15;100016.16;5114394;28;20216;-71
2023/01/19 08:25:32;;;;;;;33.30;19.40;;;;;;;0.79;91.36;100014.50;5114632;28;20176;-71
2023/01/19 08:27:59;;;;;;;32.63;17.47;;;;;;;0.84;90.44;100013.38;5114123;28;20737;-71
2023/01/19 08:30:25;;;;;;;25.63;17.17;;;;;;;0.88;90.55;100013.25;5114537;28;20185;-71
2023/01/19 08:32:53;;;;;;;31.23;17.23;;;;;;;0.90;90.29;100011.41;5114233;28;20185;-71
2023/01/19 08:35:21;;;;;;;27.33;16.80;;;;;;;0.93;90.20;100022.66;5113913;28;20701;-71
2023/01/19 08:37:47;;;;;;;21.47;16.37;;;;;;;0.93;90.37;100027.94;5113792;28;20298;-71
2023/01/19 08:40:14;;;;;;;25.70;16.47;;;;;;;0.97;91.01;100026.88;5114010;28;20267;-72
2023/01/19 08:42:40;;;;;;;29.27;18.73;;;;;;;1.02;90.25;100022.25;5113856;28;20278;-72
2023/01/19 08:45:08;;;;;;;33.40;19.83;;;;;;;0.97;89.97;100039.22;5114116;28;20184;-72
2023/01/19 08:47:34;;;;;;;29.23;18.90;;;;;;;1.00;90.98;100039.06;5113962;28;20193;-71
2023/01/19 08:50:01;;;;;;;30.53;20.03;;;;;;;0.95;90.73;100049.81;5114071;28;20585;-71
2023/01/19 08:52:28;;;;;;;38.67;20.43;;;;;;;0.98;90.99;100052.34;5114263;28;20528;-71
2023/01/19 08:54:54;;;;;;;35.67;21.10;;;;;;;1.05;91.18;100059.06;5113665;28;20240;-71
2023/01/19 08:57:21;;;;;;;32.37;20.83;;;;;;;1.02;91.24;100053.91;5113519;28;20317;-70
2023/01/19 08:59:47;;;;;;;36.93;20.90;;;;;;;1.06;90.28;100059.91;5113614;28;20212;-71
2023/01/19 09:02:13;;;;;;;41.03;21.90;;;;;;;1.09;90.90;100058.91;5113630;28;20224;-72
2023/01/19 09:04:40;;;;;;;34.83;21.13;;;;;;;1.09;90.73;100070.31;5114120;28;20185;-72
2023/01/19 09:07:06;;;;;;;35.60;22.17;;;;;;;1.03;90.65;100073.19;5113774;28;20184;-71
2023/01/19 09:09:36;;;;;;;37.37;23.77;;;;;;;1.10;90.36;100076.44;5113553;28;20192;-71
2023/01/19 09:12:03;;;;;;;32.87;23.13;;;;;;;1.11;90.48;100079.03;5113487;28;20270;-71
2023/01/19 09:14:29;;;;;;;40.37;23.53;;;;;;;1.13;91.46;100082.44;5113518;28;20596;-71
2023/01/19 09:16:56;;;;;;;39.43;24.07;;;;;;;1.17;91.23;100089.28;5113231;28;20232;-70
2023/01/19 09:19:22;;;;;;;47.60;24.83;;;;;;;1.18;91.27;100080.47;5113471;28;20189;-71
2023/01/19 09:21:49;;;;;;;48.83;26.13;;;;;;;1.21;91.18;100088.25;5115686;28;20265;-71
2023/01/19 09:24:16;;;;;;;45.00;24.67;;;;;;;1.23;91.14;100094.31;5117857;28;20249;-72
2023/01/19 09:26:42;;;;;;;45.07;24.67;;;;;;;1.21;90.81;100096.16;5118030;28;20260;-71
2023/01/19 09:29:08;;;;;;;40.50;24.93;;;;;;;1.24;91.15;100095.16;5117311;28;20781;-71
2023/01/19 09:31:36;;;;;;;44.60;25.30;;;;;;;1.24;90.54;100101.28;5117656;28;20169;-72
2023/01/19 09:34:02;;;;;;;37.30;23.67;;;;;;;1.25;90.92;100110.06;5117414;28;20193;-72
2023/01/19 09:36:29;;;;;;;62.37;26.80;;;;;;;1.27;90.66;100109.09;5117292;28;20306;-71
2023/01/19 09:38:55;;;;;;;41.70;25.13;;;;;;;1.28;91.13;100109.94;5117380;28;20197;-71
2023/01/19 09:41:24;;;;;;;47.13;25.23;;;;;;;1.25;90.86;100115.34;5117486;28;20647;-71
2023/01/19 09:43:56;;;;;;;41.73;25.20;;;;;;;1.28;90.84;100117.84;5117745;28;20233;-71
2023/01/19 09:46:33;;;;;;;54.37;27.07;;;;;;;1.25;91.15;100118.00;5117096;28;20230;-71
2023/01/19 09:49:15;;;;;;;47.43;26.63;;;;;;;1.25;90.70;100123.25;5116937;28;20279;-72
2023/01/19 09:51:47;;;;;;;46.63;27.60;;;;;;;1.33;91.39;100123.78;5117440;28;20269;-72
2023/01/19 09:54:16;;;;;;;50.40;25.50;;;;;;;1.31;91.66;100124.75;5117253;28;20664;-72
2023/01/19 09:56:45;;;;;;;48.70;27.80;;;;;;;1.35;90.66;100126.34;5117098;28;20689;-72
2023/01/19 09:59:24;;;;;;;47.87;26.83;;;;;;;1.47;91.00;100133.72;5116803;28;20601;-71
2023/01/19 10:02:08;;;;;;;51.20;25.67;;;;;;;1.47;90.73;100139.84;5117113;28;20181;-71
2023/01/19 10:04:42;;;;;;;43.00;24.47;;;;;;;1.49;91.06;100135.38;5116846;28;20170;-71
2023/01/19 10:07:43;;;;;;;54.70;25.57;;;;;;;1.53;90.76;100140.50;5117113;28;20173;-71
2023/01/19 10:10:24;;;;;;;54.20;25.37;;;;;;;1.52;90.85;100147.56;5116744;28;20268;-72
2023/01/19 10:13:18;;;;;;;52.10;26.83;;;;;;;1.51;90.57;100143.22;5117502;28;20262;-72
2023/01/19 10:15:53;;;;;;;43.87;25.47;;;;;;;1.54;90.71;100151.00;5116640;28;20173;-72
2023/01/19 10:18:29;;;;;;;41.60;25.00;;;;;;;1.61;90.78;100156.88;5116468;28;20586;-72
2023/01/19 10:21:22;;;;;;;56.20;26.57;;;;;;;1.55;90.50;100159.78;5116780;28;20181;-72
2023/01/19 10:24:12;;;;;;;49.77;25.23;;;;;;;1.59;90.25;100159.56;5116566;28;20608;-72
2023/01/19 10:26:41;;;;;;;49.30;27.07;;;;;;;1.50;90.06;100167.88;5116566;28;20193;-72
2023/01/19 10:29:36;;;;;;;51.73;25.23;;;;;;;1.52;90.52;100171.31;5116446;28;20291;-72
2023/01/19 10:32:20;;;;;;;51.10;28.40;;;;;;;1.49;90.20;100172.31;5098245;28;20177;-72
2023/01/19 10:34:48;;;;;;;60.73;26.50;;;;;;;1.55;90.12;100168.53;5116544;28;20181;-72
2023/01/19 10:37:28;;;;;;;55.07;27.13;;;;;;;1.50;89.90;100167.88;5116764;28;20235;-71
2023/01/19 10:40:14;;;;;;;52.17;29.40;;;;;;;1.57;89.67;100173.75;5116293;28;20180;-72
2023/01/19 10:42:41;;;;;;;52.03;28.40;;;;;;;1.54;90.40;100174.75;5116780;28;20249;-72
2023/01/19 10:45:15;;;;;;;51.57;28.27;;;;;;;1.64;90.05;100177.84;5116014;28;20184;-72
2023/01/19 10:47:43;;;;;;;67.23;30.27;;;;;;;1.67;89.37;100175.91;5116062;28;20248;-71
2023/01/19 10:50:25;;;;;;;60.97;30.23;;;;;;;1.77;89.88;100176.34;5115964;28;20682;-72
2023/01/19 10:52:56;;;;;;;54.00;29.00;;;;;;;1.74;89.26;100184.41;5115953;28;20215;-72
2023/01/19 10:55:24;;;;;;;60.00;29.40;;;;;;;1.75;89.32;100183.50;5116155;28;20185;-72
2023/01/19 10:57:52;;;;;;;48.73;28.17;;;;;;;1.71;89.40;100184.56;5116010;28;20299;-71
2023/01/19 11:00:29;;;;;;;56.03;30.10;;;;;;;1.88;89.70;100178.53;5097410;28;20239;-71
2023/01/19 11:02:55;;;;;;;58.90;28.23;;;;;;;1.86;89.46;100181.22;5116183;28;20230;-71
2023/01/19 11:05:25;;;;;;;55.03;26.83;;;;;;;1.75;89.11;100178.25;5116272;28;20181;-72
2023/01/19 11:07:51;;;;;;;60.37;28.40;;;;;;;1.80;89.02;100185.94;5115479;28;20240;-73
2023/01/19 11:10:21;;;;;;;60.37;27.93;;;;;;;1.91;88.74;100170.47;5115522;28;20185;-72
2023/01/19 11:12:59;;;;;;;52.90;27.33;;;;;;;1.94;88.91;100175.63;5115708;28;20178;-72
2023/01/19 11:15:47;;;;;;;56.87;29.17;;;;;;;2.05;88.75;100185.69;5115957;28;20534;-72
2023/01/19 11:18:32;;;;;;;63.57;29.63;;;;;;;2.07;88.57;100176.78;5115225;28;20209;-71
2023/01/19 11:21:05;;;;;;;57.70;29.27;;;;;;;2.14;88.54;100185.28;5115207;28;20204;-71
2023/01/19 11:23:40;;;;;;;60.60;29.67;;;;;;;2.18;87.85;100186.88;5115270;28;20227;-71
2023/01/19 11:26:14;;;;;;;55.33;30.77;;;;;;;2.16;88.10;100186.06;5097764;28;20169;-71
2023/01/19 11:28:50;;;;;;;63.07;29.97;;;;;;;2.20;88.35;100189.41;5115075;28;20814;-71
2023/01/19 11:31:18;;;;;;;61.10;32.07;;;;;;;2.26;87.63;100183.88;5115279;28;20260;-71
2023/01/19 11:33:53;;;;;;;60.60;30.30;;;;;;;2.23;87.26;100184.88;5115063;28;20670;-71
2023/01/19 11:36:26;;;;;;;62.10;31.40;;;;;;;2.21;87.58;100186.72;5115322;28;20177;-71
2023/01/19 11:38:58;;;;;;;54.57;29.30;;;;;;;2.13;87.41;100178.25;5114790;28;20378;-71
2023/01/19 11:41:34;;;;;;;56.43;29.47;;;;;;;2.12;87.61;100184.50;5115693;28;20253;-71
2023/01/19 11:44:22;;;;;;;50.83;27.63;;;;;;;2.11;87.20;100177.50;5114587;28;20165;-71
2023/01/19 11:46:57;;;;;;;51.67;29.07;;;;;;;2.14;87.18;100182.63;5115357;28;20260;-71